createdAt,value
2022-08-14T00:02:27.263Z,79.64
2022-08-14T00:04:55.800Z,79.34
2022-08-14T00:07:25.355Z,78.65
2022-08-14T00:10:01.830Z,77.88
2022-08-14T00:12:56.496Z,78.25
2022-08-14T00:15:30.007Z,78.35
2022-08-14T00:18:07.254Z,78.28
2022-08-14T00:20:42.916Z,78.15
2022-08-14T00:23:17.430Z,78.58
2022-08-14T00:25:53.728Z,78.99
2022-08-14T00:28:32.523Z,79.04
2022-08-14T00:31:03.185Z,79.26
2022-08-14T00:33:52.496Z,79.00
2022-08-14T00:36:39.032Z,78.50
2022-08-14T00:39:14.417Z,78.91
2022-08-14T00:41:42.882Z,78.59
2022-08-14T00:44:11.155Z,78.34
2022-08-14T00:46:41.121Z,79.10
2022-08-14T00:49:11.539Z,78.78
2022-08-14T00:51:44.700Z,79.00
2022-08-14T00:54:21.702Z,79.19
2022-08-14T00:56:55.276Z,79.65
2022-08-14T00:59:25.121Z,79.69
2022-08-14T01:01:55.666Z,80.04
2022-08-14T01:04:51.166Z,79.68
2022-08-14T01:07:19.941Z,80.21
2022-08-14T01:09:52.167Z,79.92
2022-08-14T01:12:27.007Z,79.62
2022-08-14T01:14:59.385Z,79.85
2022-08-14T01:17:50.800Z,80.42
2022-08-14T01:20:41.396Z,80.28
2022-08-14T01:23:16.519Z,80.01
2022-08-14T01:25:51.419Z,80.11
2022-08-14T01:28:34.386Z,80.22
2022-08-14T01:31:12.558Z,80.35
2022-08-14T01:33:59.734Z,80.27
2022-08-14T01:36:37.028Z,80.81
2022-08-14T01:39:12.820Z,80.37
2022-08-14T01:41:43.898Z,80.43
2022-08-14T01:44:32.992Z,79.91
2022-08-14T01:47:11.851Z,80.22
2022-08-14T01:49:46.169Z,80.98
2022-08-14T01:52:34.391Z,81.28
2022-08-14T01:55:17.961Z,81.68
2022-08-14T01:58:00.640Z,81.64
2022-08-14T02:00:36.374Z,82.09
2022-08-14T02:03:06.707Z,82.22
2022-08-14T02:05:38.128Z,82.43
2022-08-14T02:08:09.525Z,82.61
2022-08-14T02:10:47.138Z,82.46
2022-08-14T02:13:19.787Z,82.72
2022-08-14T02:15:48.518Z,83.01
2022-08-14T02:18:18.574Z,83.35
2022-08-14T02:20:51.379Z,82.52
2022-08-14T02:23:29.084Z,82.77
2022-08-14T02:26:24.426Z,82.59
2022-08-14T02:29:00.316Z,82.39
2022-08-14T02:31:42.260Z,83.29
2022-08-14T02:34:22.509Z,83.42
2022-08-14T02:37:03.639Z,82.58
2022-08-14T02:39:34.875Z,81.37
2022-08-14T02:42:13.165Z,80.85
2022-08-14T02:44:49.137Z,79.65
2022-08-14T02:47:20.920Z,80.53
2022-08-14T02:49:50.740Z,81.28
2022-08-14T02:52:55.656Z,81.70
2022-08-14T02:55:15.556Z,82.21
2022-08-14T02:58:02.975Z,81.85
2022-08-14T03:00:35.452Z,81.60
2022-08-14T03:03:08.427Z,81.87
2022-08-14T03:05:41.078Z,81.45
2022-08-14T03:08:15.995Z,81.68
2022-08-14T03:10:49.274Z,81.88
2022-08-14T03:13:21.446Z,82.73
2022-08-14T03:15:55.761Z,82.68
2022-08-14T03:18:30.604Z,83.65
2022-08-14T03:21:05.283Z,84.52
2022-08-14T03:23:38.050Z,85.10
2022-08-14T03:26:08.046Z,85.42
2022-08-14T03:28:39.371Z,85.85
2022-08-14T03:31:08.582Z,86.01
2022-08-14T03:33:42.287Z,86.51
2022-08-14T03:37:37.445Z,87.06
2022-08-14T03:39:16.050Z,87.70
2022-08-14T03:41:50.605Z,87.66
2022-08-14T03:45:28.013Z,88.14
2022-08-14T03:47:08.940Z,88.73
2022-08-14T03:49:41.886Z,89.28
2022-08-14T03:52:18.153Z,89.68
2022-08-14T03:55:00.805Z,89.96
2022-08-14T03:57:32.990Z,90.40
2022-08-14T04:00:13.801Z,90.13
2022-08-14T04:02:59.978Z,90.43
2022-08-14T04:05:28.192Z,91.01
2022-08-14T04:08:08.537Z,90.94
2022-08-14T04:10:46.442Z,90.87
2022-08-14T04:13:18.364Z,90.18
2022-08-14T04:15:55.907Z,90.54
2022-08-14T04:18:29.897Z,91.18
2022-08-14T04:20:58.743Z,91.76
2022-08-14T04:23:29.165Z,91.79
2022-08-14T04:26:02.719Z,92.06
2022-08-14T04:29:08.916Z,92.31
2022-08-14T04:31:24.802Z,92.39
2022-08-14T04:34:20.727Z,92.42
2022-08-14T04:37:10.647Z,92.67
2022-08-14T04:39:57.635Z,92.36
2022-08-14T04:42:47.331Z,91.71
2022-08-14T04:45:21.304Z,91.50
2022-08-14T04:48:10.117Z,91.92
2022-08-14T04:50:44.544Z,91.61
2022-08-14T04:53:15.327Z,90.74
2022-08-14T04:55:45.996Z,89.53
2022-08-14T04:58:21.487Z,89.49
2022-08-14T05:01:01.737Z,88.98
2022-08-14T05:03:34.340Z,87.45
2022-08-14T05:06:35.168Z,87.28
2022-08-14T05:09:00.314Z,83.15
2022-08-14T05:11:33.514Z,84.03
2022-08-14T05:14:42.095Z,82.99
2022-08-14T05:17:01.601Z,81.17
2022-08-14T05:19:32.570Z,82.41
2022-08-14T05:22:17.373Z,80.20
2022-08-14T05:24:51.224Z,76.96
2022-08-14T05:27:22.933Z,74.50
2022-08-14T05:29:56.982Z,73.65
2022-08-14T05:32:27.314Z,73.67
2022-08-14T05:34:59.003Z,71.96
2022-08-14T05:37:29.985Z,70.28
2022-08-14T05:40:00.825Z,73.08
2022-08-14T05:42:32.259Z,72.73
2022-08-14T05:45:04.436Z,72.01
2022-08-14T05:47:34.039Z,72.78
2022-08-14T05:50:18.573Z,74.00
2022-08-14T05:52:52.584Z,73.31
2022-08-14T05:55:22.878Z,73.32
2022-08-14T05:57:54.153Z,73.34
2022-08-14T06:00:29.310Z,74.69
2022-08-14T06:03:04.056Z,74.91
2022-08-14T06:05:33.991Z,74.17
2022-08-14T06:08:04.451Z,74.84
2022-08-14T06:10:36.992Z,74.71
2022-08-14T06:13:05.207Z,76.29
2022-08-14T06:15:33.482Z,76.17
2022-08-14T06:18:02.234Z,76.62
2022-08-14T06:20:31.316Z,77.10
2022-08-14T06:23:04.267Z,77.89
2022-08-14T06:25:32.875Z,77.92
2022-08-14T06:28:02.026Z,77.34
2022-08-14T06:30:46.416Z,77.67
2022-08-14T06:33:18.017Z,78.34
2022-08-14T06:35:47.633Z,78.22
2022-08-14T06:38:19.142Z,80.08
2022-08-14T06:40:48.499Z,80.11
2022-08-14T06:43:18.556Z,79.57
2022-08-14T06:45:53.942Z,78.81
2022-08-14T06:48:24.378Z,77.96
2022-08-14T06:50:53.432Z,78.87
2022-08-14T06:53:28.307Z,77.66
2022-08-14T06:56:01.876Z,76.29
2022-08-14T06:58:32.561Z,74.72
2022-08-14T07:01:26.869Z,73.88
2022-08-14T07:04:23.861Z,72.57
2022-08-14T07:06:54.742Z,72.14
2022-08-14T07:09:44.111Z,71.72
2022-08-14T07:12:54.204Z,71.39
2022-08-14T07:15:06.037Z,70.79
2022-08-14T07:17:36.417Z,70.46
2022-08-14T07:20:09.223Z,70.98
2022-08-14T07:22:49.749Z,71.02
2022-08-14T07:25:32.642Z,69.91
2022-08-14T07:28:01.835Z,69.13
2022-08-14T07:30:34.049Z,69.90
2022-08-14T07:33:03.499Z,69.24
2022-08-14T07:35:43.030Z,69.85
2022-08-14T07:38:22.160Z,71.73
2022-08-14T07:40:53.272Z,73.03
2022-08-14T07:43:22.116Z,75.47
2022-08-14T07:45:53.827Z,76.95
2022-08-14T07:48:25.235Z,78.34
2022-08-14T07:51:03.087Z,79.38
2022-08-14T07:53:40.410Z,85.32
2022-08-14T07:56:21.999Z,93.00
2022-08-14T07:59:00.451Z,100.00
2022-08-14T08:01:31.071Z,100.00
2022-08-14T08:04:01.172Z,100.00
2022-08-14T08:06:30.232Z,100.00
2022-08-14T08:09:03.290Z,100.00
2022-08-14T08:11:37.537Z,100.00
2022-08-14T08:14:10.503Z,100.00
2022-08-14T08:16:47.531Z,100.00
2022-08-14T08:19:20.144Z,100.00
2022-08-14T08:21:48.877Z,100.00
2022-08-14T08:24:20.034Z,100.00
2022-08-14T08:26:50.979Z,100.00
2022-08-14T08:29:28.708Z,100.00
2022-08-14T08:32:01.917Z,100.00
2022-08-14T08:34:46.005Z,100.00
2022-08-14T08:37:14.734Z,100.00
2022-08-14T08:40:03.229Z,100.00
2022-08-14T08:42:38.347Z,100.00
2022-08-14T08:45:12.097Z,100.00
2022-08-14T08:47:41.708Z,100.00
2022-08-14T08:50:23.100Z,100.00
2022-08-14T08:53:02.140Z,100.00
2022-08-14T08:55:33.884Z,100.00
2022-08-14T08:58:12.528Z,100.00
2022-08-14T09:00:49.923Z,100.00
2022-08-14T09:03:27.498Z,100.00
2022-08-14T09:05:58.287Z,100.00
2022-08-14T09:08:32.783Z,100.00
2022-08-14T09:11:19.035Z,100.00
2022-08-14T09:13:54.159Z,100.00
2022-08-14T09:16:25.086Z,100.00
2022-08-14T09:18:54.053Z,100.00
2022-08-14T09:21:24.970Z,100.00
2022-08-14T09:24:28.785Z,100.00
2022-08-14T09:26:49.113Z,100.00
2022-08-14T09:29:23.166Z,100.00
2022-08-14T09:31:57.650Z,100.00
2022-08-14T09:34:58.500Z,100.00
2022-08-14T09:37:45.046Z,100.00
2022-08-14T09:40:22.586Z,100.00
2022-08-14T09:43:02.062Z,100.00
2022-08-14T09:45:40.321Z,100.00
2022-08-14T09:48:30.064Z,100.00
2022-08-14T09:54:19.311Z,100.00
2022-08-14T09:56:31.677Z,100.00
2022-08-14T09:59:15.245Z,100.00
2022-08-14T10:01:52.919Z,100.00
2022-08-14T10:04:34.799Z,100.00
2022-08-14T10:07:08.543Z,100.00
2022-08-14T10:09:59.814Z,100.00
2022-08-14T10:12:50.217Z,100.00
2022-08-14T10:15:23.892Z,100.00
2022-08-14T10:18:17.815Z,100.00
2022-08-14T10:20:58.722Z,100.00
2022-08-14T10:23:28.927Z,100.00
2022-08-14T10:26:06.485Z,100.00
2022-08-14T10:29:17.538Z,100.00
2022-08-14T10:31:43.260Z,100.00
2022-08-14T10:34:33.333Z,100.00
2022-08-14T10:37:14.041Z,100.00
2022-08-14T10:40:02.062Z,100.00
2022-08-14T10:42:37.982Z,100.00
2022-08-14T10:45:21.504Z,100.00
2022-08-14T10:48:08.035Z,100.00
2022-08-14T10:50:46.591Z,100.00
2022-08-14T10:53:15.516Z,100.00
2022-08-14T10:55:45.600Z,100.00
2022-08-14T10:58:17.323Z,100.00
2022-08-14T11:00:57.867Z,100.00
2022-08-14T11:03:55.261Z,100.00
2022-08-14T11:06:20.902Z,100.00
2022-08-14T11:08:52.902Z,100.00
2022-08-14T11:11:25.399Z,100.00
2022-08-14T11:13:57.855Z,100.00
2022-08-14T11:16:28.721Z,100.00
2022-08-14T11:18:59.728Z,100.00
2022-08-14T11:21:34.061Z,100.00
2022-08-14T11:24:04.153Z,100.00
2022-08-14T11:26:53.271Z,100.00
2022-08-14T11:29:24.708Z,100.00
2022-08-14T11:31:57.071Z,100.00
2022-08-14T11:34:29.793Z,100.00
2022-08-14T11:37:18.220Z,100.00
2022-08-14T11:39:52.719Z,100.00
2022-08-14T11:42:57.377Z,100.00
2022-08-14T11:45:17.073Z,100.00
2022-08-14T11:48:12.901Z,100.00
2022-08-14T11:50:38.185Z,100.00
2022-08-14T11:53:09.958Z,100.00
2022-08-14T11:55:41.695Z,100.00
2022-08-14T11:58:11.744Z,100.00
2022-08-14T12:00:50.376Z,100.00
2022-08-14T12:03:27.039Z,100.00
2022-08-14T12:06:18.060Z,100.00
2022-08-14T12:09:00.323Z,100.00
2022-08-14T12:11:43.378Z,100.00
2022-08-14T12:14:30.298Z,100.00
2022-08-14T12:17:04.765Z,100.00
2022-08-14T12:19:33.441Z,100.00
2022-08-14T12:22:03.528Z,100.00
2022-08-14T12:24:40.096Z,100.00
2022-08-14T12:27:09.039Z,100.00
2022-08-14T12:29:37.683Z,100.00
2022-08-14T12:32:08.889Z,100.00
2022-08-14T12:34:37.547Z,100.00
2022-08-14T12:37:07.218Z,100.00
2022-08-14T12:39:40.240Z,100.00
2022-08-14T12:42:11.884Z,100.00
2022-08-14T12:45:00.125Z,100.00
2022-08-14T12:47:32.521Z,100.00
2022-08-14T12:50:01.239Z,100.00
2022-08-14T12:52:42.932Z,100.00
2022-08-14T12:55:21.957Z,100.00
2022-08-14T12:57:55.447Z,100.00
2022-08-14T13:00:25.853Z,100.00
2022-08-14T13:02:56.930Z,100.00
2022-08-14T13:05:27.781Z,100.00
2022-08-14T13:07:59.228Z,100.00
2022-08-14T13:10:51.972Z,100.00
2022-08-14T13:13:22.192Z,100.00
2022-08-14T13:15:57.216Z,100.00
2022-08-14T13:18:27.860Z,100.00
2022-08-14T13:21:01.054Z,100.00
2022-08-14T13:23:36.112Z,100.00
2022-08-14T13:26:08.195Z,100.00
2022-08-14T13:29:01.452Z,100.00
2022-08-14T13:31:34.113Z,100.00
2022-08-14T13:34:04.787Z,100.00
2022-08-14T13:36:51.654Z,100.00
2022-08-14T13:39:24.562Z,100.00
2022-08-14T13:41:57.728Z,100.00
2022-08-14T13:44:28.920Z,100.00
2022-08-14T13:46:58.805Z,100.00
2022-08-14T13:49:29.097Z,100.00
2022-08-14T13:52:00.582Z,100.00
2022-08-14T13:54:32.903Z,100.00
2022-08-14T13:57:04.038Z,100.00
2022-08-14T13:59:38.740Z,100.00
2022-08-14T14:02:09.616Z,100.00
2022-08-14T14:04:42.918Z,100.00
2022-08-14T14:07:23.571Z,100.00
2022-08-14T14:09:56.548Z,100.00
2022-08-14T14:12:37.349Z,100.00
2022-08-14T14:15:11.242Z,100.00
2022-08-14T14:17:40.745Z,100.00
2022-08-14T14:20:34.940Z,100.00
2022-08-14T14:23:12.187Z,100.00
2022-08-14T14:25:51.146Z,100.00
2022-08-14T14:28:31.289Z,100.00
2022-08-14T14:31:06.947Z,100.00
2022-08-14T14:33:52.375Z,100.00
2022-08-14T14:36:27.907Z,100.00
2022-08-14T14:38:58.657Z,100.00
2022-08-14T14:41:38.165Z,100.00
2022-08-14T14:44:15.992Z,100.00
2022-08-14T14:46:51.027Z,100.00
2022-08-14T14:49:31.972Z,100.00
2022-08-14T14:52:23.188Z,100.00
2022-08-14T14:54:54.865Z,100.00
2022-08-14T14:57:26.638Z,100.00
2022-08-14T15:00:12.775Z,100.00
2022-08-14T15:02:44.119Z,100.00
2022-08-14T15:05:16.147Z,100.00
2022-08-14T15:07:45.450Z,100.00
2022-08-14T15:10:28.075Z,100.00
2022-08-14T15:13:03.988Z,100.00
2022-08-14T15:15:37.418Z,100.00
2022-08-14T15:18:14.727Z,100.00
2022-08-14T15:20:57.733Z,100.00
2022-08-14T15:23:43.851Z,100.00
2022-08-14T15:26:31.091Z,100.00
2022-08-14T15:29:02.764Z,100.00
2022-08-14T15:31:36.621Z,100.00
2022-08-14T15:34:44.604Z,100.00
2022-08-14T15:37:12.673Z,100.00
2022-08-14T15:39:44.271Z,100.00
2022-08-14T15:42:15.566Z,100.00
2022-08-14T15:44:58.234Z,100.00
2022-08-14T15:47:33.111Z,100.00
2022-08-14T15:50:04.911Z,100.00
2022-08-14T15:52:37.383Z,100.00
2022-08-14T15:55:08.869Z,100.00
2022-08-14T15:57:37.810Z,100.00
2022-08-14T16:00:44.144Z,100.00
2022-08-14T16:03:18.132Z,100.00
2022-08-14T16:05:56.635Z,100.00
2022-08-14T16:08:28.927Z,100.00
2022-08-14T16:10:58.948Z,100.00
2022-08-14T16:13:42.163Z,100.00
2022-08-14T16:16:35.017Z,100.00
2022-08-14T16:19:10.155Z,100.00
2022-08-14T16:22:02.213Z,100.00
2022-08-14T16:24:59.828Z,100.00
2022-08-14T16:27:39.343Z,100.00
2022-08-14T16:30:24.415Z,100.00
2022-08-14T16:33:05.303Z,100.00
2022-08-14T16:35:41.906Z,100.00
2022-08-14T16:38:44.819Z,100.00
2022-08-14T16:41:22.274Z,100.00
2022-08-14T16:43:59.393Z,100.00
2022-08-14T16:46:28.954Z,100.00
2022-08-14T16:48:59.584Z,100.00
2022-08-14T16:51:33.907Z,100.00
2022-08-14T16:54:34.531Z,100.00
2022-08-14T16:57:12.901Z,100.00
2022-08-14T16:59:52.572Z,100.00
2022-08-14T17:02:35.589Z,100.00
2022-08-14T17:05:22.541Z,100.00
2022-08-14T17:08:31.554Z,100.00
2022-08-14T17:11:04.879Z,100.00
2022-08-14T17:13:59.738Z,100.00
2022-08-14T17:16:37.568Z,100.00
2022-08-14T17:19:13.946Z,100.00
2022-08-14T17:21:47.321Z,100.00
2022-08-14T17:24:51.656Z,100.00
2022-08-14T17:27:10.404Z,100.00
2022-08-14T17:29:44.683Z,100.00
2022-08-14T17:32:29.356Z,100.00
2022-08-14T17:35:16.365Z,100.00
2022-08-14T17:37:55.666Z,100.00
2022-08-14T17:40:38.393Z,100.00
2022-08-14T17:43:08.679Z,100.00
2022-08-14T17:45:47.184Z,100.00
2022-08-14T17:49:10.043Z,100.00
2022-08-14T17:51:24.022Z,100.00
2022-08-14T17:54:03.003Z,100.00
2022-08-14T17:56:38.802Z,100.00
2022-08-14T17:59:07.493Z,100.00
2022-08-14T18:01:39.057Z,100.00
2022-08-14T18:04:24.880Z,100.00
2022-08-14T18:07:08.861Z,100.00
2022-08-14T18:09:57.596Z,100.00
2022-08-14T18:12:36.503Z,100.00
2022-08-14T18:15:14.585Z,100.00
2022-08-14T18:17:50.673Z,100.00
2022-08-14T18:21:24.129Z,100.00
2022-08-14T18:23:13.813Z,100.00
2022-08-14T18:25:48.526Z,100.00
2022-08-14T18:28:32.181Z,100.00
2022-08-14T18:31:42.204Z,100.00
2022-08-14T18:34:31.563Z,100.00
2022-08-14T18:37:17.219Z,100.00
2022-08-14T18:40:01.798Z,100.00
2022-08-14T18:42:46.439Z,100.00
2022-08-14T18:45:26.370Z,100.00
2022-08-14T18:48:28.750Z,100.00
2022-08-14T18:51:15.146Z,100.00
2022-08-14T18:53:59.383Z,100.00
2022-08-14T18:57:02.783Z,100.00
2022-08-14T18:59:35.696Z,100.00
2022-08-14T19:02:42.545Z,100.00
2022-08-14T19:05:14.450Z,100.00
2022-08-14T19:07:43.676Z,100.00
2022-08-14T19:10:31.796Z,100.00
2022-08-14T19:13:12.224Z,100.00
2022-08-14T19:15:43.982Z,100.00
2022-08-14T19:18:38.339Z,100.00
2022-08-14T19:21:23.985Z,100.00
2022-08-14T19:24:29.546Z,100.00
2022-08-14T19:27:19.673Z,100.00
2022-08-14T19:29:53.169Z,100.00
2022-08-14T19:32:40.952Z,100.00
2022-08-14T19:35:55.243Z,100.00
2022-08-14T19:38:49.492Z,100.00
2022-08-14T19:41:22.075Z,100.00
2022-08-14T19:43:56.945Z,100.00
2022-08-14T19:46:38.414Z,100.00
2022-08-14T19:49:22.961Z,100.00
2022-08-14T19:51:51.734Z,100.00
2022-08-14T19:54:31.479Z,100.00
2022-08-14T19:57:03.806Z,100.00
2022-08-14T19:59:36.716Z,100.00
2022-08-14T20:02:29.984Z,100.00
2022-08-14T20:05:00.525Z,100.00
2022-08-14T20:07:58.911Z,100.00
2022-08-14T20:11:04.010Z,100.00
2022-08-14T20:13:32.112Z,100.00
2022-08-14T20:16:12.375Z,100.00
2022-08-14T20:18:51.967Z,100.00
2022-08-14T20:21:21.713Z,100.00
2022-08-14T20:23:50.215Z,100.00
2022-08-14T20:26:31.782Z,100.00
2022-08-14T20:29:07.059Z,100.00
2022-08-14T20:31:38.124Z,100.00
2022-08-14T20:34:19.115Z,100.00
2022-08-14T20:37:04.714Z,100.00
2022-08-14T20:39:45.003Z,100.00
2022-08-14T20:42:34.604Z,100.00
2022-08-14T20:45:23.574Z,100.00
2022-08-14T20:47:58.561Z,100.00
2022-08-14T20:50:31.481Z,100.00
2022-08-14T20:53:06.010Z,100.00
2022-08-14T20:55:41.440Z,100.00
2022-08-14T20:58:43.459Z,100.00
2022-08-14T21:01:33.790Z,100.00
2022-08-14T21:04:12.074Z,100.00
2022-08-14T21:07:23.469Z,100.00
2022-08-14T21:10:03.374Z,100.00
2022-08-14T21:12:33.387Z,100.00
2022-08-14T21:15:03.897Z,100.00
2022-08-14T21:17:41.641Z,100.00
2022-08-14T21:20:25.234Z,100.00
2022-08-14T21:23:00.447Z,100.00
2022-08-14T21:25:31.834Z,100.00
2022-08-14T21:28:04.054Z,100.00
2022-08-14T21:30:51.866Z,100.00
2022-08-14T21:33:23.104Z,100.00
2022-08-14T21:35:55.491Z,100.00
2022-08-14T21:38:31.341Z,100.00
2022-08-14T21:41:41.323Z,100.00
2022-08-14T21:44:17.385Z,100.00
2022-08-14T21:46:50.418Z,100.00
2022-08-14T21:49:23.475Z,100.00
2022-08-14T21:51:59.964Z,100.00
2022-08-14T21:54:49.530Z,100.00
2022-08-14T21:57:55.850Z,100.00
2022-08-14T22:00:35.175Z,100.00
2022-08-14T22:03:02.806Z,100.00
2022-08-14T22:05:32.431Z,100.00
2022-08-14T22:08:02.491Z,100.00
2022-08-14T22:10:32.609Z,100.00
2022-08-14T22:13:01.799Z,100.00
2022-08-14T22:15:31.476Z,100.00
2022-08-14T22:18:02.046Z,100.00
2022-08-14T22:20:33.327Z,100.00
2022-08-14T22:23:04.513Z,100.00
2022-08-14T22:25:34.529Z,100.00
2022-08-14T22:28:14.128Z,100.00
2022-08-14T22:30:44.149Z,100.00
2022-08-14T22:33:13.408Z,100.00
2022-08-14T22:35:43.990Z,100.00
2022-08-14T22:38:35.554Z,100.00
2022-08-14T22:41:27.694Z,100.00
2022-08-14T22:43:52.264Z,100.00
2022-08-14T22:46:22.145Z,100.00
2022-08-14T22:48:51.760Z,100.00
2022-08-14T22:51:24.254Z,100.00
2022-08-14T22:53:55.071Z,100.00
2022-08-14T22:56:30.210Z,100.00
2022-08-14T22:59:00.419Z,100.00
2022-08-14T23:01:56.953Z,100.00
2022-08-14T23:04:35.649Z,100.00
2022-08-14T23:07:22.175Z,100.00
2022-08-14T23:09:55.950Z,100.00
2022-08-14T23:12:29.557Z,100.00
2022-08-14T23:14:59.257Z,100.00
2022-08-14T23:17:38.801Z,100.00
2022-08-14T23:20:18.494Z,100.00
2022-08-14T23:22:52.318Z,100.00
2022-08-14T23:25:56.649Z,100.00
2022-08-14T23:28:34.674Z,100.00
2022-08-14T23:31:08.345Z,100.00
2022-08-14T23:33:45.831Z,100.00
2022-08-14T23:36:28.189Z,100.00
2022-08-14T23:39:10.127Z,100.00
2022-08-14T23:41:46.565Z,100.00
2022-08-14T23:44:22.596Z,100.00
2022-08-14T23:46:56.989Z,100.00
2022-08-14T23:49:56.667Z,100.00
2022-08-14T23:52:50.734Z,100.00
2022-08-14T23:55:11.371Z,100.00
2022-08-14T23:57:43.803Z,100.00
